sensor_id;sensor_type;location;lat;lon;timestamp;P1;durP1;ratioP1;P2;durP2;ratioP2
40871;SDS011;26591;43.264;26.940;2022-07-10T00:00:14;4.43;;;2.97;;
40871;SDS011;26591;43.264;26.940;2022-07-10T00:02:42;5.03;;;2.77;;
40871;SDS011;26591;43.264;26.940;2022-07-10T00:05:08;5.30;;;3.33;;
40871;SDS011;26591;43.264;26.940;2022-07-10T00:07:34;4.60;;;3.10;;
40871;SDS011;26591;43.264;26.940;2022-07-10T00:10:00;5.53;;;3.13;;
40871;SDS011;26591;43.264;26.940;2022-07-10T00:12:26;5.82;;;3.13;;
40871;SDS011;26591;43.264;26.940;2022-07-10T00:14:52;6.90;;;3.08;;
40871;SDS011;26591;43.264;26.940;2022-07-10T00:17:17;5.82;;;3.08;;
40871;SDS011;26591;43.264;26.940;2022-07-10T00:19:43;7.35;;;3.00;;
40871;SDS011;26591;43.264;26.940;2022-07-10T00:22:09;6.25;;;3.05;;
40871;SDS011;26591;43.264;26.940;2022-07-10T00:24:34;3.47;;;3.17;;
40871;SDS011;26591;43.264;26.940;2022-07-10T00:27:00;4.88;;;2.90;;
40871;SDS011;26591;43.264;26.940;2022-07-10T00:29:25;8.75;;;3.08;;
40871;SDS011;26591;43.264;26.940;2022-07-10T00:31:51;5.88;;;3.13;;
40871;SDS011;26591;43.264;26.940;2022-07-10T00:34:17;15.70;;;3.50;;
40871;SDS011;26591;43.264;26.940;2022-07-10T00:36:43;7.35;;;2.95;;
40871;SDS011;26591;43.264;26.940;2022-07-10T00:39:09;4.05;;;3.05;;
40871;SDS011;26591;43.264;26.940;2022-07-10T00:41:35;5.50;;;2.83;;
40871;SDS011;26591;43.264;26.940;2022-07-10T00:44:02;5.55;;;3.25;;
40871;SDS011;26591;43.264;26.940;2022-07-10T00:46:28;4.88;;;3.17;;
40871;SDS011;26591;43.264;26.940;2022-07-10T00:48:55;3.60;;;3.00;;
40871;SDS011;26591;43.264;26.940;2022-07-10T00:51:22;4.03;;;2.85;;
40871;SDS011;26591;43.264;26.940;2022-07-10T00:53:50;5.53;;;2.90;;
40871;SDS011;26591;43.264;26.940;2022-07-10T00:56:17;10.73;;;3.30;;
40871;SDS011;26591;43.264;26.940;2022-07-10T00:58:46;6.78;;;3.42;;
40871;SDS011;26591;43.264;26.940;2022-07-10T01:01:12;5.82;;;3.33;;
40871;SDS011;26591;43.264;26.940;2022-07-10T01:03:39;5.90;;;3.28;;
40871;SDS011;26591;43.264;26.940;2022-07-10T01:06:04;8.80;;;3.05;;
40871;SDS011;26591;43.264;26.940;2022-07-10T01:08:30;8.88;;;3.05;;
40871;SDS011;26591;43.264;26.940;2022-07-10T01:10:56;8.02;;;4.53;;
40871;SDS011;26591;43.264;26.940;2022-07-10T01:13:22;5.45;;;3.50;;
40871;SDS011;26591;43.264;26.940;2022-07-10T01:15:48;4.55;;;3.13;;
40871;SDS011;26591;43.264;26.940;2022-07-10T01:18:14;4.20;;;3.47;;
40871;SDS011;26591;43.264;26.940;2022-07-10T01:20:40;6.78;;;3.38;;
40871;SDS011;26591;43.264;26.940;2022-07-10T01:23:05;9.43;;;4.68;;
40871;SDS011;26591;43.264;26.940;2022-07-10T01:25:31;6.05;;;3.30;;
40871;SDS011;26591;43.264;26.940;2022-07-10T01:27:57;8.98;;;3.50;;
40871;SDS011;26591;43.264;26.940;2022-07-10T01:30:24;6.38;;;3.60;;
40871;SDS011;26591;43.264;26.940;2022-07-10T01:32:51;8.30;;;3.63;;
40871;SDS011;26591;43.264;26.940;2022-07-10T01:35:20;5.30;;;3.33;;
40871;SDS011;26591;43.264;26.940;2022-07-10T01:37:46;4.95;;;3.50;;
40871;SDS011;26591;43.264;26.940;2022-07-10T01:40:12;9.65;;;3.80;;
40871;SDS011;26591;43.264;26.940;2022-07-10T01:42:38;3.78;;;3.20;;
40871;SDS011;26591;43.264;26.940;2022-07-10T01:45:05;4.50;;;3.70;;
40871;SDS011;26591;43.264;26.940;2022-07-10T01:47:32;5.70;;;3.55;;
40871;SDS011;26591;43.264;26.940;2022-07-10T01:49:58;6.20;;;3.63;;
40871;SDS011;26591;43.264;26.940;2022-07-10T01:52:24;6.10;;;3.90;;
40871;SDS011;26591;43.264;26.940;2022-07-10T01:54:49;4.38;;;3.72;;
40871;SDS011;26591;43.264;26.940;2022-07-10T01:57:16;6.15;;;3.80;;
40871;SDS011;26591;43.264;26.940;2022-07-10T01:59:43;6.32;;;3.70;;
40871;SDS011;26591;43.264;26.940;2022-07-10T02:02:09;5.57;;;3.97;;
40871;SDS011;26591;43.264;26.940;2022-07-10T02:04:34;5.88;;;3.78;;
40871;SDS011;26591;43.264;26.940;2022-07-10T02:07:06;6.10;;;3.70;;
40871;SDS011;26591;43.264;26.940;2022-07-10T02:09:36;6.55;;;3.28;;
40871;SDS011;26591;43.264;26.940;2022-07-10T02:12:02;6.82;;;3.72;;
40871;SDS011;26591;43.264;26.940;2022-07-10T02:14:28;5.75;;;3.53;;
40871;SDS011;26591;43.264;26.940;2022-07-10T02:16:54;7.53;;;3.55;;
40871;SDS011;26591;43.264;26.940;2022-07-10T02:19:20;4.00;;;3.58;;
40871;SDS011;26591;43.264;26.940;2022-07-10T02:21:46;4.18;;;3.58;;
40871;SDS011;26591;43.264;26.940;2022-07-10T02:24:12;6.88;;;3.88;;
40871;SDS011;26591;43.264;26.940;2022-07-10T02:26:37;5.05;;;3.60;;
40871;SDS011;26591;43.264;26.940;2022-07-10T02:29:03;8.10;;;3.47;;
40871;SDS011;26591;43.264;26.940;2022-07-10T02:31:29;5.35;;;4.28;;
40871;SDS011;26591;43.264;26.940;2022-07-10T02:33:54;7.07;;;3.78;;
40871;SDS011;26591;43.264;26.940;2022-07-10T02:36:20;10.80;;;4.22;;
40871;SDS011;26591;43.264;26.940;2022-07-10T02:38:46;4.07;;;3.55;;
40871;SDS011;26591;43.264;26.940;2022-07-10T02:41:11;7.13;;;3.38;;
40871;SDS011;26591;43.264;26.940;2022-07-10T02:43:37;7.85;;;3.80;;
40871;SDS011;26591;43.264;26.940;2022-07-10T02:46:03;6.28;;;3.60;;
40871;SDS011;26591;43.264;26.940;2022-07-10T02:48:29;8.27;;;3.65;;
40871;SDS011;26591;43.264;26.940;2022-07-10T02:50:54;7.68;;;4.15;;
40871;SDS011;26591;43.264;26.940;2022-07-10T02:53:20;7.50;;;3.40;;
40871;SDS011;26591;43.264;26.940;2022-07-10T02:55:46;5.97;;;4.05;;
40871;SDS011;26591;43.264;26.940;2022-07-10T02:58:11;9.25;;;3.22;;
40871;SDS011;26591;43.264;26.940;2022-07-10T03:00:37;5.07;;;3.30;;
40871;SDS011;26591;43.264;26.940;2022-07-10T03:03:05;4.22;;;3.33;;
40871;SDS011;26591;43.264;26.940;2022-07-10T03:05:31;3.92;;;3.20;;
40871;SDS011;26591;43.264;26.940;2022-07-10T03:07:56;8.48;;;3.50;;
40871;SDS011;26591;43.264;26.940;2022-07-10T03:10:22;10.30;;;3.63;;
40871;SDS011;26591;43.264;26.940;2022-07-10T03:12:47;4.75;;;3.40;;
40871;SDS011;26591;43.264;26.940;2022-07-10T03:15:13;4.13;;;3.22;;
40871;SDS011;26591;43.264;26.940;2022-07-10T03:17:39;7.20;;;3.90;;
40871;SDS011;26591;43.264;26.940;2022-07-10T03:20:06;6.00;;;3.40;;
40871;SDS011;26591;43.264;26.940;2022-07-10T03:22:32;10.15;;;4.05;;
40871;SDS011;26591;43.264;26.940;2022-07-10T03:24:58;6.65;;;3.30;;
40871;SDS011;26591;43.264;26.940;2022-07-10T03:27:24;5.53;;;3.20;;
40871;SDS011;26591;43.264;26.940;2022-07-10T03:29:50;5.82;;;3.65;;
40871;SDS011;26591;43.264;26.940;2022-07-10T03:32:15;7.03;;;3.67;;
40871;SDS011;26591;43.264;26.940;2022-07-10T03:34:41;7.85;;;3.65;;
40871;SDS011;26591;43.264;26.940;2022-07-10T03:37:07;3.70;;;3.35;;
40871;SDS011;26591;43.264;26.940;2022-07-10T03:39:33;16.48;;;3.35;;
40871;SDS011;26591;43.264;26.940;2022-07-10T03:41:59;4.97;;;3.42;;
40871;SDS011;26591;43.264;26.940;2022-07-10T03:44:24;4.32;;;3.30;;
40871;SDS011;26591;43.264;26.940;2022-07-10T03:46:50;7.70;;;3.63;;
40871;SDS011;26591;43.264;26.940;2022-07-10T03:49:15;5.20;;;3.55;;
40871;SDS011;26591;43.264;26.940;2022-07-10T03:51:41;5.95;;;3.60;;
40871;SDS011;26591;43.264;26.940;2022-07-10T03:54:07;4.20;;;3.60;;
40871;SDS011;26591;43.264;26.940;2022-07-10T03:56:32;7.43;;;3.75;;
40871;SDS011;26591;43.264;26.940;2022-07-10T03:59:36;8.07;;;3.60;;
40871;SDS011;26591;43.264;26.940;2022-07-10T04:02:02;7.65;;;3.60;;
40871;SDS011;26591;43.264;26.940;2022-07-10T04:04:28;7.95;;;3.55;;
40871;SDS011;26591;43.264;26.940;2022-07-10T04:06:54;6.47;;;3.38;;
40871;SDS011;26591;43.264;26.940;2022-07-10T04:09:19;5.95;;;3.13;;
40871;SDS011;26591;43.264;26.940;2022-07-10T04:11:45;5.53;;;3.63;;
40871;SDS011;26591;43.264;26.940;2022-07-10T04:14:10;7.78;;;3.47;;
40871;SDS011;26591;43.264;26.940;2022-07-10T04:16:36;4.45;;;3.53;;
40871;SDS011;26591;43.264;26.940;2022-07-10T04:19:02;5.90;;;3.60;;
40871;SDS011;26591;43.264;26.940;2022-07-10T04:21:27;10.45;;;3.65;;
40871;SDS011;26591;43.264;26.940;2022-07-10T04:23:53;4.07;;;3.25;;
40871;SDS011;26591;43.264;26.940;2022-07-10T04:26:19;6.53;;;3.22;;
40871;SDS011;26591;43.264;26.940;2022-07-10T04:28:44;6.38;;;3.75;;
40871;SDS011;26591;43.264;26.940;2022-07-10T04:31:10;7.70;;;3.55;;
40871;SDS011;26591;43.264;26.940;2022-07-10T04:33:36;8.00;;;3.78;;
40871;SDS011;26591;43.264;26.940;2022-07-10T04:36:01;6.05;;;3.40;;
40871;SDS011;26591;43.264;26.940;2022-07-10T04:38:27;5.65;;;3.20;;
40871;SDS011;26591;43.264;26.940;2022-07-10T04:40:52;8.07;;;3.00;;
40871;SDS011;26591;43.264;26.940;2022-07-10T04:43:18;7.35;;;2.88;;
40871;SDS011;26591;43.264;26.940;2022-07-10T04:45:44;5.30;;;2.92;;
40871;SDS011;26591;43.264;26.940;2022-07-10T04:48:10;5.22;;;2.83;;
40871;SDS011;26591;43.264;26.940;2022-07-10T04:50:37;5.07;;;3.17;;
40871;SDS011;26591;43.264;26.940;2022-07-10T04:53:03;9.30;;;4.00;;
40871;SDS011;26591;43.264;26.940;2022-07-10T04:55:28;5.10;;;2.88;;
40871;SDS011;26591;43.264;26.940;2022-07-10T04:57:54;6.82;;;3.05;;
40871;SDS011;26591;43.264;26.940;2022-07-10T05:00:21;11.23;;;3.10;;
40871;SDS011;26591;43.264;26.940;2022-07-10T05:02:47;10.35;;;3.60;;
40871;SDS011;26591;43.264;26.940;2022-07-10T05:05:12;8.10;;;2.97;;
40871;SDS011;26591;43.264;26.940;2022-07-10T05:07:38;4.85;;;3.17;;
40871;SDS011;26591;43.264;26.940;2022-07-10T05:10:04;10.35;;;2.88;;
40871;SDS011;26591;43.264;26.940;2022-07-10T05:12:30;7.63;;;2.55;;
40871;SDS011;26591;43.264;26.940;2022-07-10T05:14:56;3.80;;;2.58;;
40871;SDS011;26591;43.264;26.940;2022-07-10T05:17:23;5.65;;;2.83;;
40871;SDS011;26591;43.264;26.940;2022-07-10T05:19:49;6.32;;;3.03;;
40871;SDS011;26591;43.264;26.940;2022-07-10T05:22:16;7.60;;;2.47;;
40871;SDS011;26591;43.264;26.940;2022-07-10T05:24:45;9.02;;;2.90;;
40871;SDS011;26591;43.264;26.940;2022-07-10T05:27:11;5.30;;;2.78;;
40871;SDS011;26591;43.264;26.940;2022-07-10T05:29:36;4.75;;;2.67;;
40871;SDS011;26591;43.264;26.940;2022-07-10T05:32:02;6.55;;;2.47;;
40871;SDS011;26591;43.264;26.940;2022-07-10T05:34:28;4.22;;;2.50;;
40871;SDS011;26591;43.264;26.940;2022-07-10T05:36:53;3.92;;;2.63;;
40871;SDS011;26591;43.264;26.940;2022-07-10T05:39:19;4.85;;;2.42;;
40871;SDS011;26591;43.264;26.940;2022-07-10T05:41:45;6.90;;;2.50;;
40871;SDS011;26591;43.264;26.940;2022-07-10T05:44:10;8.07;;;2.92;;
40871;SDS011;26591;43.264;26.940;2022-07-10T05:46:36;3.72;;;2.80;;
40871;SDS011;26591;43.264;26.940;2022-07-10T05:49:01;9.07;;;3.10;;
40871;SDS011;26591;43.264;26.940;2022-07-10T05:51:27;5.60;;;3.20;;
40871;SDS011;26591;43.264;26.940;2022-07-10T05:53:53;5.78;;;2.55;;
40871;SDS011;26591;43.264;26.940;2022-07-10T05:56:18;5.90;;;2.65;;
40871;SDS011;26591;43.264;26.940;2022-07-10T05:58:44;3.63;;;2.45;;
40871;SDS011;26591;43.264;26.940;2022-07-10T06:01:09;8.45;;;2.75;;
40871;SDS011;26591;43.264;26.940;2022-07-10T06:03:35;5.65;;;2.30;;
40871;SDS011;26591;43.264;26.940;2022-07-10T06:06:01;8.35;;;2.38;;
40871;SDS011;26591;43.264;26.940;2022-07-10T06:08:26;8.52;;;2.55;;
40871;SDS011;26591;43.264;26.940;2022-07-10T06:10:52;5.50;;;2.30;;
40871;SDS011;26591;43.264;26.940;2022-07-10T06:13:18;4.55;;;1.90;;
40871;SDS011;26591;43.264;26.940;2022-07-10T06:15:43;3.35;;;2.17;;
40871;SDS011;26591;43.264;26.940;2022-07-10T06:18:09;3.67;;;2.42;;
40871;SDS011;26591;43.264;26.940;2022-07-10T06:20:35;7.00;;;2.30;;
40871;SDS011;26591;43.264;26.940;2022-07-10T06:23:00;6.82;;;2.17;;
40871;SDS011;26591;43.264;26.940;2022-07-10T06:25:26;4.10;;;1.92;;
40871;SDS011;26591;43.264;26.940;2022-07-10T06:27:51;10.00;;;2.15;;
40871;SDS011;26591;43.264;26.940;2022-07-10T06:30:17;10.38;;;2.10;;
40871;SDS011;26591;43.264;26.940;2022-07-10T06:32:42;6.72;;;2.38;;
40871;SDS011;26591;43.264;26.940;2022-07-10T06:35:09;4.35;;;2.22;;
40871;SDS011;26591;43.264;26.940;2022-07-10T06:37:35;5.32;;;1.90;;
40871;SDS011;26591;43.264;26.940;2022-07-10T06:40:01;4.00;;;1.65;;
40871;SDS011;26591;43.264;26.940;2022-07-10T06:42:28;3.92;;;2.10;;
40871;SDS011;26591;43.264;26.940;2022-07-10T06:44:53;4.20;;;2.17;;
40871;SDS011;26591;43.264;26.940;2022-07-10T06:47:19;6.10;;;1.90;;
40871;SDS011;26591;43.264;26.940;2022-07-10T06:50:05;5.95;;;1.83;;
40871;SDS011;26591;43.264;26.940;2022-07-10T06:52:32;6.43;;;1.75;;
40871;SDS011;26591;43.264;26.940;2022-07-10T06:54:59;4.88;;;1.85;;
40871;SDS011;26591;43.264;26.940;2022-07-10T06:57:25;7.55;;;2.25;;
40871;SDS011;26591;43.264;26.940;2022-07-10T06:59:50;7.07;;;1.70;;
40871;SDS011;26591;43.264;26.940;2022-07-10T07:02:17;5.25;;;2.22;;
40871;SDS011;26591;43.264;26.940;2022-07-10T07:04:43;4.05;;;1.73;;
40871;SDS011;26591;43.264;26.940;2022-07-10T07:07:12;5.53;;;1.60;;
40871;SDS011;26591;43.264;26.940;2022-07-10T07:09:39;5.43;;;1.77;;
40871;SDS011;26591;43.264;26.940;2022-07-10T07:12:06;6.07;;;1.83;;
40871;SDS011;26591;43.264;26.940;2022-07-10T07:14:32;8.52;;;1.75;;
40871;SDS011;26591;43.264;26.940;2022-07-10T07:16:58;5.60;;;1.75;;
40871;SDS011;26591;43.264;26.940;2022-07-10T07:19:28;5.43;;;2.25;;
40871;SDS011;26591;43.264;26.940;2022-07-10T07:21:58;4.45;;;1.50;;
40871;SDS011;26591;43.264;26.940;2022-07-10T07:24:43;5.60;;;1.92;;
40871;SDS011;26591;43.264;26.940;2022-07-10T07:27:09;8.45;;;1.77;;
40871;SDS011;26591;43.264;26.940;2022-07-10T07:29:35;2.33;;;1.60;;
40871;SDS011;26591;43.264;26.940;2022-07-10T07:32:01;5.78;;;1.73;;
40871;SDS011;26591;43.264;26.940;2022-07-10T07:34:27;3.65;;;1.67;;
40871;SDS011;26591;43.264;26.940;2022-07-10T07:36:52;6.72;;;1.83;;
40871;SDS011;26591;43.264;26.940;2022-07-10T07:39:18;6.85;;;1.92;;
40871;SDS011;26591;43.264;26.940;2022-07-10T07:41:44;6.13;;;1.98;;
40871;SDS011;26591;43.264;26.940;2022-07-10T07:44:09;4.80;;;1.60;;
40871;SDS011;26591;43.264;26.940;2022-07-10T07:46:36;9.63;;;1.88;;
40871;SDS011;26591;43.264;26.940;2022-07-10T07:49:02;7.13;;;1.88;;
40871;SDS011;26591;43.264;26.940;2022-07-10T07:51:27;4.28;;;1.75;;
40871;SDS011;26591;43.264;26.940;2022-07-10T07:53:53;5.65;;;1.80;;
40871;SDS011;26591;43.264;26.940;2022-07-10T07:56:18;6.90;;;1.90;;
40871;SDS011;26591;43.264;26.940;2022-07-10T07:58:44;4.53;;;1.77;;
40871;SDS011;26591;43.264;26.940;2022-07-10T08:01:09;2.72;;;1.60;;
40871;SDS011;26591;43.264;26.940;2022-07-10T08:03:35;6.28;;;1.90;;
40871;SDS011;26591;43.264;26.940;2022-07-10T08:06:00;9.00;;;2.08;;
40871;SDS011;26591;43.264;26.940;2022-07-10T08:08:26;3.22;;;1.60;;
40871;SDS011;26591;43.264;26.940;2022-07-10T08:10:52;3.78;;;1.48;;
40871;SDS011;26591;43.264;26.940;2022-07-10T08:13:17;5.63;;;2.28;;
40871;SDS011;26591;43.264;26.940;2022-07-10T08:15:43;6.50;;;1.90;;
40871;SDS011;26591;43.264;26.940;2022-07-10T08:18:08;8.10;;;1.60;;
40871;SDS011;26591;43.264;26.940;2022-07-10T08:20:34;6.07;;;1.70;;
40871;SDS011;26591;43.264;26.940;2022-07-10T08:23:00;3.58;;;1.40;;
40871;SDS011;26591;43.264;26.940;2022-07-10T08:25:29;2.88;;;1.50;;
40871;SDS011;26591;43.264;26.940;2022-07-10T08:27:59;10.75;;;1.80;;
40871;SDS011;26591;43.264;26.940;2022-07-10T08:30:26;8.60;;;1.65;;
40871;SDS011;26591;43.264;26.940;2022-07-10T08:32:52;5.95;;;1.60;;
40871;SDS011;26591;43.264;26.940;2022-07-10T08:35:17;8.98;;;1.75;;
40871;SDS011;26591;43.264;26.940;2022-07-10T08:37:43;5.57;;;1.50;;
40871;SDS011;26591;43.264;26.940;2022-07-10T08:40:13;6.88;;;1.83;;
40871;SDS011;26591;43.264;26.940;2022-07-10T08:42:40;5.25;;;1.48;;
40871;SDS011;26591;43.264;26.940;2022-07-10T08:45:09;7.90;;;1.98;;
40871;SDS011;26591;43.264;26.940;2022-07-10T08:47:37;3.30;;;1.70;;
40871;SDS011;26591;43.264;26.940;2022-07-10T08:50:04;6.00;;;1.90;;
40871;SDS011;26591;43.264;26.940;2022-07-10T08:52:34;3.67;;;1.42;;
40871;SDS011;26591;43.264;26.940;2022-07-10T08:55:13;5.93;;;1.80;;
40871;SDS011;26591;43.264;26.940;2022-07-10T08:57:40;2.42;;;1.80;;
40871;SDS011;26591;43.264;26.940;2022-07-10T09:00:08;1.92;;;1.35;;
40871;SDS011;26591;43.264;26.940;2022-07-10T09:02:34;4.05;;;1.55;;
40871;SDS011;26591;43.264;26.940;2022-07-10T09:05:00;4.03;;;1.80;;
40871;SDS011;26591;43.264;26.940;2022-07-10T09:07:34;5.00;;;1.52;;
40871;SDS011;26591;43.264;26.940;2022-07-10T09:10:05;3.95;;;1.30;;
40871;SDS011;26591;43.264;26.940;2022-07-10T09:12:48;6.72;;;1.38;;
40871;SDS011;26591;43.264;26.940;2022-07-10T09:15:19;2.60;;;1.40;;
40871;SDS011;26591;43.264;26.940;2022-07-10T09:17:54;6.13;;;1.70;;
40871;SDS011;26591;43.264;26.940;2022-07-10T09:20:39;10.30;;;1.85;;
40871;SDS011;26591;43.264;26.940;2022-07-10T09:23:14;5.15;;;1.50;;
40871;SDS011;26591;43.264;26.940;2022-07-10T09:25:48;5.28;;;1.40;;
40871;SDS011;26591;43.264;26.940;2022-07-10T09:28:17;5.82;;;1.50;;
40871;SDS011;26591;43.264;26.940;2022-07-10T09:30:44;4.07;;;2.10;;
40871;SDS011;26591;43.264;26.940;2022-07-10T09:36:08;5.60;;;1.50;;
40871;SDS011;26591;43.264;26.940;2022-07-10T09:43:46;3.30;;;2.00;;
40871;SDS011;26591;43.264;26.940;2022-07-10T09:46:13;4.47;;;1.67;;
40871;SDS011;26591;43.264;26.940;2022-07-10T09:48:40;8.25;;;1.60;;
40871;SDS011;26591;43.264;26.940;2022-07-10T09:51:07;6.15;;;1.45;;
40871;SDS011;26591;43.264;26.940;2022-07-10T09:56:07;3.97;;;1.50;;
40871;SDS011;26591;43.264;26.940;2022-07-10T09:58:34;6.53;;;1.63;;
40871;SDS011;26591;43.264;26.940;2022-07-10T10:01:02;6.63;;;1.75;;
40871;SDS011;26591;43.264;26.940;2022-07-10T10:03:30;2.83;;;1.70;;
40871;SDS011;26591;43.264;26.940;2022-07-10T10:06:02;9.50;;;1.40;;
40871;SDS011;26591;43.264;26.940;2022-07-10T10:11:13;5.80;;;1.80;;
40871;SDS011;26591;43.264;26.940;2022-07-10T10:13:40;3.72;;;1.70;;
40871;SDS011;26591;43.264;26.940;2022-07-10T10:16:08;6.10;;;1.35;;
40871;SDS011;26591;43.264;26.940;2022-07-10T10:18:34;4.30;;;1.65;;
40871;SDS011;26591;43.264;26.940;2022-07-10T10:21:02;3.20;;;1.30;;
40871;SDS011;26591;43.264;26.940;2022-07-10T10:23:31;3.93;;;1.47;;
40871;SDS011;26591;43.264;26.940;2022-07-10T10:25:59;3.97;;;1.45;;
40871;SDS011;26591;43.264;26.940;2022-07-10T10:28:26;5.43;;;1.50;;
40871;SDS011;26591;43.264;26.940;2022-07-10T10:30:57;2.90;;;1.50;;
40871;SDS011;26591;43.264;26.940;2022-07-10T10:36:00;5.15;;;1.95;;
40871;SDS011;26591;43.264;26.940;2022-07-10T10:41:22;3.40;;;1.40;;
40871;SDS011;26591;43.264;26.940;2022-07-10T10:44:33;2.15;;;1.35;;
40871;SDS011;26591;43.264;26.940;2022-07-10T10:49:47;4.68;;;1.45;;
40871;SDS011;26591;43.264;26.940;2022-07-10T10:52:16;2.60;;;1.50;;
40871;SDS011;26591;43.264;26.940;2022-07-10T10:57:23;3.97;;;2.00;;
40871;SDS011;26591;43.264;26.940;2022-07-10T11:00:10;5.03;;;1.75;;
40871;SDS011;26591;43.264;26.940;2022-07-10T11:02:39;9.48;;;1.90;;
40871;SDS011;26591;43.264;26.940;2022-07-10T11:07:58;2.83;;;1.75;;
40871;SDS011;26591;43.264;26.940;2022-07-10T11:10:32;2.40;;;1.60;;
40871;SDS011;26591;43.264;26.940;2022-07-10T11:13:04;6.95;;;1.60;;
40871;SDS011;26591;43.264;26.940;2022-07-10T11:15:43;3.35;;;1.55;;
40871;SDS011;26591;43.264;26.940;2022-07-10T11:18:12;6.78;;;1.50;;
40871;SDS011;26591;43.264;26.940;2022-07-10T11:20:40;4.05;;;1.50;;
40871;SDS011;26591;43.264;26.940;2022-07-10T11:23:28;4.03;;;1.45;;
40871;SDS011;26591;43.264;26.940;2022-07-10T11:26:06;1.77;;;1.52;;
40871;SDS011;26591;43.264;26.940;2022-07-10T11:31:21;4.15;;;1.58;;
40871;SDS011;26591;43.264;26.940;2022-07-10T11:33:49;3.92;;;1.52;;
40871;SDS011;26591;43.264;26.940;2022-07-10T11:36:17;3.25;;;1.33;;
40871;SDS011;26591;43.264;26.940;2022-07-10T11:38:47;4.80;;;1.58;;
40871;SDS011;26591;43.264;26.940;2022-07-10T11:41:14;2.67;;;1.75;;
40871;SDS011;26591;43.264;26.940;2022-07-10T11:43:48;2.92;;;1.45;;
40871;SDS011;26591;43.264;26.940;2022-07-10T11:46:18;2.50;;;1.58;;
40871;SDS011;26591;43.264;26.940;2022-07-10T11:48:49;3.80;;;1.40;;
40871;SDS011;26591;43.264;26.940;2022-07-10T11:51:22;3.28;;;1.23;;
40871;SDS011;26591;43.264;26.940;2022-07-10T11:53:56;2.95;;;1.40;;
40871;SDS011;26591;43.264;26.940;2022-07-10T11:56:42;3.40;;;1.50;;
40871;SDS011;26591;43.264;26.940;2022-07-10T11:59:12;5.40;;;1.50;;
40871;SDS011;26591;43.264;26.940;2022-07-10T12:04:13;4.40;;;1.42;;
40871;SDS011;26591;43.264;26.940;2022-07-10T12:06:41;3.63;;;1.70;;
40871;SDS011;26591;43.264;26.940;2022-07-10T12:09:15;5.20;;;1.40;;
40871;SDS011;26591;43.264;26.940;2022-07-10T12:11:44;4.68;;;1.60;;
40871;SDS011;26591;43.264;26.940;2022-07-10T12:14:23;2.08;;;1.40;;
40871;SDS011;26591;43.264;26.940;2022-07-10T12:16:50;2.03;;;1.38;;
40871;SDS011;26591;43.264;26.940;2022-07-10T12:19:17;6.18;;;2.28;;
40871;SDS011;26591;43.264;26.940;2022-07-10T12:21:46;3.03;;;1.40;;
40871;SDS011;26591;43.264;26.940;2022-07-10T12:24:13;5.25;;;1.50;;
40871;SDS011;26591;43.264;26.940;2022-07-10T12:26:42;8.15;;;1.77;;
40871;SDS011;26591;43.264;26.940;2022-07-10T12:29:27;2.35;;;1.50;;
40871;SDS011;26591;43.264;26.940;2022-07-10T12:31:55;3.38;;;1.60;;
40871;SDS011;26591;43.264;26.940;2022-07-10T12:34:43;6.97;;;1.60;;
40871;SDS011;26591;43.264;26.940;2022-07-10T12:39:36;2.42;;;1.50;;
40871;SDS011;26591;43.264;26.940;2022-07-10T12:42:06;7.78;;;1.60;;
40871;SDS011;26591;43.264;26.940;2022-07-10T12:44:45;3.15;;;1.42;;
40871;SDS011;26591;43.264;26.940;2022-07-10T12:47:15;3.58;;;1.30;;
40871;SDS011;26591;43.264;26.940;2022-07-10T12:49:51;2.38;;;1.77;;
40871;SDS011;26591;43.264;26.940;2022-07-10T12:52:36;6.70;;;2.30;;
40871;SDS011;26591;43.264;26.940;2022-07-10T12:55:07;3.67;;;2.03;;
40871;SDS011;26591;43.264;26.940;2022-07-10T13:00:44;4.13;;;1.83;;
40871;SDS011;26591;43.264;26.940;2022-07-10T13:03:18;4.75;;;1.52;;
40871;SDS011;26591;43.264;26.940;2022-07-10T13:05:47;4.85;;;1.92;;
40871;SDS011;26591;43.264;26.940;2022-07-10T13:08:13;4.80;;;2.33;;
40871;SDS011;26591;43.264;26.940;2022-07-10T13:10:53;2.80;;;2.10;;
40871;SDS011;26591;43.264;26.940;2022-07-10T13:13:26;5.88;;;2.42;;
40871;SDS011;26591;43.264;26.940;2022-07-10T13:15:53;3.30;;;2.20;;
40871;SDS011;26591;43.264;26.940;2022-07-10T13:18:20;3.53;;;1.92;;
40871;SDS011;26591;43.264;26.940;2022-07-10T13:20:52;4.50;;;2.65;;
40871;SDS011;26591;43.264;26.940;2022-07-10T13:23:19;8.30;;;3.00;;
40871;SDS011;26591;43.264;26.940;2022-07-10T13:25:47;5.32;;;2.80;;
40871;SDS011;26591;43.264;26.940;2022-07-10T13:28:14;7.93;;;2.83;;
40871;SDS011;26591;43.264;26.940;2022-07-10T13:30:41;13.23;;;3.42;;
40871;SDS011;26591;43.264;26.940;2022-07-10T13:33:07;4.18;;;2.58;;
40871;SDS011;26591;43.264;26.940;2022-07-10T13:35:32;4.05;;;2.25;;
40871;SDS011;26591;43.264;26.940;2022-07-10T13:37:59;4.95;;;2.78;;
40871;SDS011;26591;43.264;26.940;2022-07-10T13:40:26;5.57;;;3.20;;
40871;SDS011;26591;43.264;26.940;2022-07-10T13:42:52;3.72;;;2.70;;
40871;SDS011;26591;43.264;26.940;2022-07-10T13:45:19;5.82;;;2.28;;
40871;SDS011;26591;43.264;26.940;2022-07-10T13:47:45;6.15;;;2.60;;
40871;SDS011;26591;43.264;26.940;2022-07-10T13:50:10;2.90;;;2.10;;
40871;SDS011;26591;43.264;26.940;2022-07-10T13:52:36;3.33;;;2.00;;
40871;SDS011;26591;43.264;26.940;2022-07-10T13:55:02;5.68;;;2.08;;
40871;SDS011;26591;43.264;26.940;2022-07-10T13:57:29;14.30;;;2.70;;
40871;SDS011;26591;43.264;26.940;2022-07-10T13:59:55;5.55;;;2.35;;
40871;SDS011;26591;43.264;26.940;2022-07-10T14:02:21;11.93;;;2.20;;
40871;SDS011;26591;43.264;26.940;2022-07-10T14:04:47;3.33;;;2.35;;
40871;SDS011;26591;43.264;26.940;2022-07-10T14:07:12;4.25;;;2.55;;
40871;SDS011;26591;43.264;26.940;2022-07-10T14:09:38;6.22;;;2.25;;
40871;SDS011;26591;43.264;26.940;2022-07-10T14:12:05;3.10;;;2.00;;
40871;SDS011;26591;43.264;26.940;2022-07-10T14:14:31;8.70;;;2.38;;
40871;SDS011;26591;43.264;26.940;2022-07-10T14:16:58;2.85;;;2.00;;
40871;SDS011;26591;43.264;26.940;2022-07-10T14:19:24;6.50;;;2.08;;
40871;SDS011;26591;43.264;26.940;2022-07-10T14:21:50;4.75;;;2.50;;
40871;SDS011;26591;43.264;26.940;2022-07-10T14:24:16;5.25;;;2.70;;
40871;SDS011;26591;43.264;26.940;2022-07-10T14:26:43;5.72;;;3.10;;
40871;SDS011;26591;43.264;26.940;2022-07-10T14:29:12;7.97;;;2.63;;
40871;SDS011;26591;43.264;26.940;2022-07-10T14:31:39;6.00;;;2.70;;
40871;SDS011;26591;43.264;26.940;2022-07-10T14:34:06;3.58;;;2.58;;
40871;SDS011;26591;43.264;26.940;2022-07-10T14:36:32;6.80;;;2.20;;
40871;SDS011;26591;43.264;26.940;2022-07-10T14:38:58;8.32;;;2.53;;
40871;SDS011;26591;43.264;26.940;2022-07-10T14:41:25;10.85;;;3.17;;
40871;SDS011;26591;43.264;26.940;2022-07-10T14:43:51;5.60;;;2.63;;
40871;SDS011;26591;43.264;26.940;2022-07-10T14:46:17;3.53;;;2.42;;
40871;SDS011;26591;43.264;26.940;2022-07-10T14:48:43;5.97;;;2.55;;
40871;SDS011;26591;43.264;26.940;2022-07-10T14:51:10;13.75;;;2.30;;
40871;SDS011;26591;43.264;26.940;2022-07-10T14:53:36;5.95;;;2.50;;
40871;SDS011;26591;43.264;26.940;2022-07-10T14:56:05;3.95;;;2.80;;
40871;SDS011;26591;43.264;26.940;2022-07-10T14:58:32;4.65;;;2.70;;
40871;SDS011;26591;43.264;26.940;2022-07-10T15:00:59;3.75;;;2.55;;
40871;SDS011;26591;43.264;26.940;2022-07-10T15:03:25;6.15;;;3.20;;
40871;SDS011;26591;43.264;26.940;2022-07-10T15:05:51;6.15;;;3.03;;
40871;SDS011;26591;43.264;26.940;2022-07-10T15:08:25;5.25;;;3.10;;
40871;SDS011;26591;43.264;26.940;2022-07-10T15:10:51;4.43;;;3.00;;
40871;SDS011;26591;43.264;26.940;2022-07-10T15:13:17;5.63;;;2.88;;